Estación Meteorológica Peña el Pijo (Robertgarden) [ 11/12/19 04:50:15 CET ]

Fecha Hora Presion(HPa) Temp (°C) Humedad % Rocio (°C) Viento ( m/s) Direccion Lluvia 1Hora(mm) Lluvia 24H(mm) LLuvia Total(mm)
2019-May-11 01:01:20 1010.500 12.2 67 6.2         318.05
2019-May-11 02:01:47 1010.500 11.6 70 6.3         318.05
2019-May-11 03:01:43 1010.600 11.2 71 6.2         318.05
2019-May-11 04:01:42 1010.500 11.4 73 6.7         318.05
2019-May-11 05:01:41 1010.100 11.5 76 7.4         318.05
2019-May-11 06:01:43 1010.400 11.1 77 7.2         318.05
2019-May-11 07:01:40 1010.700 10.8 80 7.5         318.05
2019-May-11 08:01:33 1010.800 11.8 82 8.8         318.05
2019-May-11 09:01:58 1011.000 17.2 72 12.1         318.05
2019-May-11 10:01:40 1011.400 22.2 50 11.3         318.05
2019-May-11 11:01:45 1011.300 25.4 40 10.9         318.05
2019-May-11 12:01:46 1011.200 27.5 33 9.7 2.7 WNW     318.05
2019-May-11 13:01:49 1011.100 29.6 30 10.2         318.05
2019-May-11 14:01:46 1010.800 28.1 31 9.3 1.1 NE     318.05
2019-May-11 15:01:41 1010.800 29.5 29 9.5         318.05
2019-May-11 16:01:52 1010.800 27.2 30 8.2 2.4 NNE     318.05
2019-May-11 17:01:57 1010.500 28.9 29 9.0         318.05
2019-May-11 18:02:07 1010.600 29.1 29 9.2         318.05
2019-May-11 19:01:51 1011.000 27.8 29 8.1         318.05
2019-May-11 20:01:50 1011.300 24.7 37 9.0         318.05
2019-May-11 21:01:59 1012.000 21.9 49 10.7         318.05
2019-May-11 22:01:47 1013.000 19.7 57 10.9         318.05
2019-May-11 23:01:47 1013.700 18.1 63 10.9         318.05

Temperatura Máxima:29°    Temperatura Mínima:10°
Presión Máxima:1013.700 Hpa    Presión Mínima:1010.100 Hpa


Volver